createdAt,value
2022-11-04T00:04:31.280Z,100013.84
2022-11-04T00:11:51.504Z,100002.81
2022-11-04T00:18:53.163Z,100003.38
2022-11-04T00:26:13.837Z,99997.97
2022-11-04T00:33:27.399Z,99996.47
2022-11-04T00:40:28.961Z,99983.84
2022-11-04T00:47:30.558Z,99983.13
2022-11-04T00:54:32.138Z,99979.56
2022-11-04T01:01:33.840Z,99973.63
2022-11-04T01:08:35.487Z,99979.22
2022-11-04T01:15:37.852Z,99956.28
2022-11-04T01:22:39.433Z,99952.66
2022-11-04T01:29:41.021Z,99937.63
2022-11-04T01:36:42.613Z,99941.09
2022-11-04T01:43:46.593Z,99926.78
2022-11-04T01:50:48.608Z,99933.03
2022-11-04T01:57:50.311Z,99949.38
2022-11-04T02:04:51.909Z,99944.97
2022-11-04T02:12:12.145Z,99935.53
2022-11-04T02:19:35.152Z,99924.06
2022-11-04T02:27:01.008Z,99910.44
2022-11-04T02:34:17.614Z,99911.50
2022-11-04T02:41:33.577Z,99897.38
2022-11-04T02:49:04.483Z,99897.13
2022-11-04T02:56:06.100Z,99896.47
2022-11-04T03:03:11.478Z,99890.03
2022-11-04T03:10:16.129Z,99881.94
2022-11-04T03:17:32.452Z,99874.53
2022-11-04T03:24:34.019Z,99892.22
2022-11-04T03:31:46.207Z,99894.69
2022-11-04T03:38:47.824Z,99890.66
2022-11-04T03:45:50.116Z,99901.53
2022-11-04T03:52:51.742Z,99917.56
2022-11-04T04:00:12.597Z,99923.63
2022-11-04T04:07:33.088Z,99909.69
2022-11-04T04:14:39.425Z,99916.44
2022-11-04T04:21:48.398Z,99904.03
2022-11-04T04:28:50.519Z,99906.16
2022-11-04T04:35:56.107Z,99904.88
2022-11-04T04:43:16.283Z,99912.44
2022-11-04T04:50:18.933Z,99903.63
2022-11-04T04:57:20.488Z,99897.81
2022-11-04T05:04:22.081Z,99903.09
2022-11-04T05:11:24.563Z,99917.72
2022-11-04T05:18:28.713Z,99923.22
2022-11-04T05:25:30.240Z,99918.91
2022-11-04T05:32:31.867Z,99931.44
2022-11-04T05:39:33.424Z,99941.31
2022-11-04T05:46:35.031Z,99934.00
2022-11-04T05:53:36.647Z,99961.50
2022-11-04T06:00:38.207Z,99958.13
2022-11-04T06:07:39.805Z,99966.88
2022-11-04T06:14:42.176Z,99977.06
2022-11-04T06:21:43.826Z,99980.00
2022-11-04T06:28:45.484Z,99987.44
2022-11-04T06:35:47.063Z,99989.50
2022-11-04T06:42:50.477Z,100010.50
2022-11-04T06:49:52.032Z,100007.69
2022-11-04T06:56:53.598Z,100013.06
2022-11-04T07:03:56.502Z,100023.63
2022-11-04T07:10:58.068Z,100031.09
2022-11-04T07:17:59.880Z,100028.16
2022-11-04T07:25:01.597Z,100021.16
2022-11-04T07:32:03.332Z,100013.41
2022-11-04T07:39:06.636Z,100014.50
2022-11-04T07:46:12.545Z,100020.06
2022-11-04T07:53:14.115Z,100007.47
2022-11-04T08:00:19.123Z,99992.78
2022-11-04T08:07:20.711Z,99999.00
2022-11-04T08:14:22.284Z,99984.75
2022-11-04T08:21:23.860Z,99998.75
2022-11-04T08:28:25.622Z,100020.19
2022-11-04T08:35:27.176Z,100014.44
2022-11-04T08:42:28.752Z,100029.53
2022-11-04T08:49:30.329Z,100019.72
2022-11-04T08:56:33.458Z,100027.84
2022-11-04T09:03:37.658Z,100033.34
2022-11-04T09:10:46.271Z,100024.28
2022-11-04T09:17:47.842Z,100013.03
2022-11-04T09:24:49.449Z,100007.03
2022-11-04T09:31:51.126Z,99985.44
2022-11-04T09:38:52.693Z,99997.63
2022-11-04T09:45:54.299Z,99982.91
2022-11-04T09:53:01.102Z,99976.41
2022-11-04T10:00:03.137Z,99987.38
2022-11-04T10:07:21.061Z,100029.41
2022-11-04T10:14:25.689Z,100048.50
2022-11-04T10:21:51.300Z,100046.91
2022-11-04T10:28:57.126Z,100066.22
2022-11-04T10:36:01.403Z,100074.28
2022-11-04T10:43:02.998Z,100069.97
2022-11-04T10:50:28.761Z,100066.28
2022-11-04T10:57:30.934Z,100063.75
2022-11-04T11:04:36.046Z,100078.53
2022-11-04T11:11:47.242Z,100086.59
2022-11-04T11:19:12.793Z,100104.19
2022-11-04T11:26:19.299Z,100112.66
2022-11-04T11:33:24.869Z,100113.63
2022-11-04T11:40:28.653Z,100119.41
2022-11-04T11:47:30.218Z,100117.56
2022-11-04T11:54:37.494Z,100120.06
2022-11-04T12:01:46.789Z,100135.00
2022-11-04T12:16:48.753Z,100113.47
2022-11-04T12:23:56.186Z,100121.31
2022-11-04T12:31:28.769Z,100115.16
2022-11-04T12:38:52.103Z,100130.78
2022-11-04T12:46:24.362Z,100130.09
2022-11-04T12:53:38.240Z,100137.06
2022-11-04T13:00:40.321Z,100134.38
2022-11-04T13:07:46.459Z,100130.47
2022-11-04T13:15:01.677Z,100134.00
2022-11-04T13:22:10.131Z,100149.00
2022-11-04T13:29:16.398Z,100146.56
2022-11-04T13:36:48.871Z,100161.53
2022-11-04T13:43:57.237Z,100158.22
2022-11-04T13:51:05.196Z,100157.69
2022-11-04T13:58:06.765Z,100147.13
2022-11-04T14:05:31.126Z,100148.84
2022-11-04T14:12:33.150Z,100147.00
2022-11-04T14:20:19.853Z,100161.03
2022-11-04T14:27:30.537Z,100154.53
2022-11-04T14:34:34.439Z,100159.75
2022-11-04T14:41:56.306Z,100157.38
2022-11-04T14:49:01.040Z,100179.19
2022-11-04T14:56:23.222Z,100183.72
2022-11-04T15:04:09.378Z,100177.38
2022-11-04T15:10:52.078Z,100169.47
2022-11-04T15:18:01.640Z,100190.22
2022-11-04T15:25:05.747Z,100191.44
2022-11-04T15:32:07.511Z,100205.06
2022-11-04T15:39:13.009Z,100214.44
2022-11-04T15:46:18.497Z,100210.50
2022-11-04T15:53:20.126Z,100210.59
2022-11-04T16:00:24.592Z,100218.38
2022-11-04T16:07:26.261Z,100218.72
2022-11-04T16:14:29.646Z,100236.22
2022-11-04T16:21:33.501Z,100232.44
2022-11-04T16:28:36.590Z,100233.94
2022-11-04T16:35:42.617Z,100251.66
2022-11-04T16:42:44.808Z,100258.16
2022-11-04T16:49:46.618Z,100264.19
2022-11-04T16:56:48.270Z,100268.84
2022-11-04T17:03:49.884Z,100279.75
2022-11-04T17:10:51.686Z,100285.78
2022-11-04T17:17:53.259Z,100291.00
2022-11-04T17:24:54.843Z,100301.00
2022-11-04T17:31:56.477Z,100299.81
2022-11-04T17:38:58.103Z,100304.34
2022-11-04T17:46:19.660Z,100309.44
2022-11-04T17:53:21.330Z,100313.53
2022-11-04T18:00:29.269Z,100324.13
2022-11-04T18:07:30.842Z,100335.13
2022-11-04T18:14:32.930Z,100333.72
2022-11-04T18:21:34.547Z,100330.38
2022-11-04T18:28:39.337Z,100343.44
2022-11-04T18:35:40.943Z,100344.53
2022-11-04T18:42:42.571Z,100342.03
2022-11-04T18:49:44.132Z,100349.38
2022-11-04T18:56:45.852Z,100339.97
2022-11-04T19:03:47.563Z,100358.97
2022-11-04T19:11:00.789Z,100356.13
2022-11-04T19:18:03.374Z,100362.22
2022-11-04T19:25:05.298Z,100367.19
2022-11-04T19:32:12.732Z,100372.78
2022-11-04T19:39:15.692Z,100367.78
2022-11-04T19:46:17.243Z,100365.63
2022-11-04T19:53:18.806Z,100377.06
2022-11-04T20:00:20.729Z,100373.91
2022-11-04T20:07:22.290Z,100383.25
2022-11-04T20:14:24.258Z,100386.13
2022-11-04T20:21:26.597Z,100395.09
2022-11-04T20:28:28.214Z,100393.00
2022-11-04T20:35:29.841Z,100393.75
2022-11-04T20:42:31.407Z,100399.06
2022-11-04T20:49:32.957Z,100408.22
2022-11-04T20:56:35.964Z,100417.19
2022-11-04T21:03:37.552Z,100422.19
2022-11-04T21:10:39.092Z,100426.69
2022-11-04T21:17:40.640Z,100434.78
2022-11-04T21:24:42.194Z,100438.34
2022-11-04T21:31:44.008Z,100436.38
2022-11-04T21:38:45.675Z,100450.06
2022-11-04T21:45:47.254Z,100453.44
2022-11-04T21:52:48.809Z,100458.59
2022-11-04T21:59:50.366Z,100459.88
2022-11-04T22:06:51.923Z,100472.31
2022-11-04T22:13:57.872Z,100465.06
2022-11-04T22:21:07.566Z,100466.03
2022-11-04T22:28:09.126Z,100474.34
2022-11-04T22:35:10.721Z,100491.47
2022-11-04T22:42:12.322Z,100485.13
2022-11-04T22:49:14.768Z,100478.69
2022-11-04T22:56:16.359Z,100485.69
2022-11-04T23:03:18.116Z,100486.25
2022-11-04T23:10:38.555Z,100491.66
2022-11-04T23:17:58.715Z,100493.66
2022-11-04T23:25:06.641Z,100504.38
2022-11-04T23:32:08.604Z,100504.69
2022-11-04T23:39:10.158Z,100507.94
2022-11-04T23:46:30.271Z,100509.75
2022-11-04T23:53:50.466Z,100511.78
